Cameron, North Carolina
Current Conditions -  °F | °C
As of 11:35 PM on Tuesday 21 Oct 2014 (Local Time) from KSOP Reporting Station
Broken Clouds Broken Clouds  
Wind Chill: 59°   Ceiling: 7500
Heat Index: 59°   Visibility: 10mi
Dew Point: 37°   Wind: 7mph
Humidity: 45%   Direction: 360°N
Pressure: 29.96"   Gusts: NA
Location:  35.33°N, 79.26°W
Report Text: KSOP 220335Z AUTO 36006KT 330V030 10SM BKN075 BKN100 15/03 A2996 RMK AO1
Loading
Personal Weather Stations






























Interactive Weather Map
Tropical Storm Tracking
New forecast layout! Learn more

10-Day Weather Forecast

Advertisements
Track Severe Weather on mobile